< < Back
Terminal Aerodrome Forecast


Current Version              Previous Versions:   1  2  3  4  5  6  7  8  9  

Terminal Aerodrome Forecast

341
FTUS42 KJAX 270204 AAA
TAFSSI
TAF AMD
KSSI 270204Z 2702/2724 17006KT P6SM VCSH SCT005 BKN010 OVC090
     FM270700 20007KT P6SM BKN005 OVC012
     FM271300 23012G20KT P6SM VCSH SCT005 BKN015 OVC150
     FM271600 26014G23KT P6SM VCTS SCT015 BKN025CB OVC090 PROB30
      2716/2720 29015G30KT 3SM +TSRA BR SCT005 BKN020CB OVC050=

Latest METAR

298
SAUS70 KWBC 271000 RRD
MTRSSI
METAR KSSI 270953Z AUTO 24008KT 10SM OVC011 18/17 A2976 RMK AO2 SLP077
T01830167


USA.gov is the U.S. government's official web portal to all federal, state and local government web resources and services.